Terminal Aerodrome Forecast
Issued by NWS

Home | Current Version | Previous Version | Text Only | Print | Product List | Glossary On
Versions: 1 2 3 4 5 6 7 8 9 10 11 12 13 14 15 16 17
972
FTUS44 KTSA 302320
TAFXNA
TAF
KXNA 302320Z 0100/0124 VRB06KT P6SM VCTS BKN050CB
     FM010200 00000KT P6SM BKN250
     FM010900 00000KT P6SM OVC250 PROB30 0109/0115 3SM TSRA BKN030CB
     FM011500 05004KT P6SM OVC100 PROB30 0115/0118 3SM TSRA BKN030CB
     FM011800 03006KT P6SM SCT050 BKN100 PROB30 0120/0124 3SM TSRA
      BKN040CB=

USA.gov is the U.S. government's official web portal to all federal, state and local government web resources and services.